Time;durP1;ratioP1;P1;durP2;ratioP2;P2;SDS_P1;SDS_P2;PMS_P1;PMS_P2;Temp;Humidity;BMP_temperature;BMP_pressure;BME280_temperature;BME280_humidity;BME280_pressure;Samples;Min_cycle;Max_cycle;Signal;HPM_P1;HPM_P2
2023/04/27 00:01:28;;;;;;;8.00;0.87;;;;;;;4.35;95.00;100740.31;4996634;28;20272;-83
2023/04/27 00:03:53;;;;;;;2.03;1.93;;;;;;;4.41;93.95;100739.25;4996979;28;20297;-83
2023/04/27 00:06:19;;;;;;;0.73;0.73;;;;;;;4.46;93.73;100741.97;4996680;28;20583;-82
2023/04/27 00:08:44;;;;;;;1.27;1.27;;;;;;;4.50;92.68;100734.97;4997107;28;20192;-83
2023/04/27 00:11:09;;;;;;;0.90;0.90;;;;;;;4.54;91.72;100741.47;4997623;28;20554;-83
2023/04/27 00:13:35;;;;;;;0.50;0.50;;;;;;;4.56;91.73;100738.50;4996558;28;20236;-84
2023/04/27 00:16:02;;;;;;;1.30;1.13;;;;;;;4.58;91.20;100737.16;4997759;28;20706;-84
2023/04/27 00:18:28;;;;;;;18.83;1.50;;;;;;;4.55;91.47;100743.09;4995985;28;20205;-84
2023/04/27 00:20:53;;;;;;;3.93;0.43;;;;;;;4.56;91.41;100733.91;4995916;28;20185;-83
2023/04/27 00:23:19;;;;;;;1.93;0.87;;;;;;;4.57;91.29;100732.81;4995636;28;20188;-83
2023/04/27 00:25:44;;;;;;;0.83;0.83;;;;;;;4.59;91.07;100737.97;4996446;28;20235;-83
2023/04/27 00:28:09;;;;;;;0.97;0.80;;;;;;;4.60;91.03;100734.19;4996510;28;20189;-83
2023/04/27 00:30:35;;;;;;;1.40;0.83;;;;;;;4.60;91.06;100736.88;4995948;28;20193;-83
2023/04/27 00:33:00;;;;;;;0.30;0.30;;;;;;;4.60;90.77;100735.00;4997536;28;20266;-83
2023/04/27 00:35:25;;;;;;;2.20;2.10;;;;;;;4.60;90.32;100732.28;4997066;28;20177;-82
2023/04/27 00:37:53;;;;;;;0.40;0.40;;;;;;;4.61;91.13;100744.72;4997789;28;20181;-84
2023/04/27 00:40:20;;;;;;;0.47;0.33;;;;;;;4.60;91.31;100739.59;4996518;28;20185;-83
2023/04/27 00:42:45;;;;;;;1.33;1.23;;;;;;;4.57;91.68;100735.53;4997801;28;20209;-85
2023/04/27 00:45:10;;;;;;;1.07;1.07;;;;;;;4.54;91.90;100746.88;4995523;28;20624;-83
2023/04/27 00:47:36;;;;;;;0.73;0.73;;;;;;;4.55;92.43;100750.41;4995905;28;20563;-83
2023/04/27 00:50:02;;;;;;;1.07;1.00;;;;;;;4.54;92.57;100746.06;4995547;28;20185;-82
2023/04/27 00:52:28;;;;;;;1.77;1.60;;;;;;;4.54;92.85;100748.78;4997409;28;20184;-84
2023/04/27 00:54:56;;;;;;;0.80;0.80;;;;;;;4.49;93.02;100749.56;4996705;28;20173;-83
2023/04/27 00:57:22;;;;;;;1.07;1.00;;;;;;;4.53;93.03;100750.66;4995048;28;20204;-83
2023/04/27 00:59:47;;;;;;;0.93;0.93;;;;;;;4.53;92.64;100744.44;4995565;28;20177;-82
2023/04/27 01:02:13;;;;;;;0.43;0.43;;;;;;;4.53;92.74;100750.66;4995960;28;20181;-83
2023/04/27 01:04:39;;;;;;;0.83;0.83;;;;;;;4.53;93.12;100749.84;4996267;28;20205;-83
2023/04/27 01:07:04;;;;;;;8.80;0.67;;;;;;;4.49;93.62;100749.56;4994624;28;20228;-83
2023/04/27 01:09:29;;;;;;;5.80;1.37;;;;;;;4.47;93.93;100749.00;4995322;28;20181;-83
2023/04/27 01:11:57;;;;;;;1.30;1.30;;;;;;;4.48;93.84;100750.63;4994069;28;20189;-83
2023/04/27 01:14:22;;;;;;;0.97;0.97;;;;;;;4.50;94.04;100755.81;4994825;28;20181;-83
2023/04/27 01:16:47;;;;;;;6.20;1.53;;;;;;;4.48;94.30;100754.19;4996099;28;20259;-83
2023/04/27 01:19:13;;;;;;;1.33;1.07;;;;;;;4.44;94.72;100753.06;4994751;28;20724;-82
2023/04/27 01:21:38;;;;;;;2.33;1.43;;;;;;;4.45;95.02;100759.28;4994140;28;20207;-83
2023/04/27 01:24:06;;;;;;;2.07;1.60;;;;;;;4.48;94.72;100758.75;4993276;28;20193;-83
2023/04/27 01:26:31;;;;;;;5.67;2.03;;;;;;;4.52;94.00;100759.88;4994825;28;20213;-83
2023/04/27 01:28:57;;;;;;;0.80;0.80;;;;;;;4.52;94.34;100761.75;4995146;28;20185;-83
2023/04/27 01:31:22;;;;;;;0.53;0.53;;;;;;;4.53;94.42;100763.38;4994430;28;20180;-82
2023/04/27 01:33:48;;;;;;;2.33;1.33;;;;;;;4.48;94.50;100770.41;4993856;28;20181;-81
2023/04/27 01:36:13;;;;;;;0.00;0.00;;;;;;;4.49;95.28;100773.94;4994753;28;20587;-82
2023/04/27 01:38:39;;;;;;;0.70;0.70;;;;;;;4.50;95.20;100778.25;4996758;28;20181;-83
2023/04/27 01:41:06;;;;;;;1.10;1.10;;;;;;;4.50;95.80;100772.84;4996425;28;20269;-84
2023/04/27 01:43:31;;;;;;;1.37;1.00;;;;;;;4.45;96.32;100786.31;4994174;28;20252;-83
2023/04/27 01:46:10;;;;;;;1.20;1.13;;;;;;;4.46;96.53;100786.06;4995377;28;20240;-83
2023/04/27 01:48:36;;;;;;;1.27;1.17;;;;;;;4.43;96.87;100791.19;4994937;28;20192;-82
2023/04/27 01:51:02;;;;;;;7.27;1.27;;;;;;;4.39;96.93;100799.03;4996267;28;20212;-83
2023/04/27 01:53:28;;;;;;;0.80;0.80;;;;;;;4.32;97.43;100789.50;4994151;28;20647;-83
2023/04/27 01:55:53;;;;;;;4.20;1.33;;;;;;;4.29;98.18;100798.13;4995518;28;20675;-83
2023/04/27 01:58:19;;;;;;;2.23;1.70;;;;;;;4.24;97.92;100804.34;4994071;28;20675;-84
2023/04/27 02:00:44;;;;;;;1.80;1.70;;;;;;;4.21;98.58;100799.44;4995570;28;20187;-83
2023/04/27 02:03:09;;;;;;;10.17;1.50;;;;;;;4.17;99.31;100799.13;4993992;28;20181;-83
2023/04/27 02:05:35;;;;;;;1.50;1.37;;;;;;;4.15;99.78;100805.88;4994574;28;20232;-84
2023/04/27 02:08:00;;;;;;;2.90;1.30;;;;;;;4.11;99.67;100804.78;4993690;28;20675;-83
2023/04/27 02:10:25;;;;;;;2.17;2.00;;;;;;;4.07;100.00;100809.09;4995556;28;20208;-84
2023/04/27 02:12:51;;;;;;;0.83;0.83;;;;;;;4.04;100.00;100821.19;4996037;28;20681;-85
2023/04/27 02:15:16;;;;;;;1.13;1.13;;;;;;;4.03;100.00;100821.47;4995062;28;20189;-81
2023/04/27 02:17:42;;;;;;;0.87;0.87;;;;;;;3.99;100.00;100826.59;4996018;28;20216;-83
2023/04/27 02:20:09;;;;;;;1.63;1.53;;;;;;;3.98;100.00;100824.94;4996339;28;20264;-83
2023/04/27 02:22:35;;;;;;;1.03;1.03;;;;;;;3.96;100.00;100832.50;4996283;28;20192;-84
2023/04/27 02:25:00;;;;;;;1.60;1.43;;;;;;;3.95;100.00;100830.88;4996650;28;20217;-82
2023/04/27 02:27:25;;;;;;;0.57;0.57;;;;;;;3.94;100.00;100826.56;4996443;28;20546;-83
2023/04/27 02:29:51;;;;;;;2.73;1.23;;;;;;;3.89;100.00;100827.31;5006259;28;20189;-84
2023/04/27 02:32:16;;;;;;;0.60;0.60;;;;;;;3.87;100.00;100834.03;4998054;28;20176;-84
2023/04/27 02:34:41;;;;;;;1.80;1.13;;;;;;;3.82;100.00;100837.53;4998343;28;20658;-83
2023/04/27 02:37:07;;;;;;;0.53;0.53;;;;;;;3.78;100.00;100835.59;4998098;28;20201;-83
2023/04/27 02:39:32;;;;;;;0.60;0.60;;;;;;;3.74;100.00;100829.88;4997873;28;20193;-83
2023/04/27 02:41:57;;;;;;;0.70;0.70;;;;;;;3.67;100.00;100831.97;4997662;28;20196;-83
2023/04/27 02:44:22;;;;;;;1.47;0.93;;;;;;;3.67;100.00;100839.28;4998092;28;20248;-84
2023/04/27 02:46:49;;;;;;;1.07;0.97;;;;;;;3.65;100.00;100839.53;4997114;28;20299;-83
2023/04/27 02:49:15;;;;;;;1.03;1.03;;;;;;;3.60;100.00;100836.75;4997709;28;20280;-84
2023/04/27 02:51:40;;;;;;;0.10;0.10;;;;;;;3.59;100.00;100832.44;4997648;28;20624;-83
2023/04/27 02:54:05;;;;;;;0.80;0.80;;;;;;;3.56;100.00;100835.66;4997401;28;20196;-83
2023/04/27 02:56:31;;;;;;;0.03;0.03;;;;;;;3.52;100.00;100834.53;4998075;28;20201;-83
2023/04/27 02:58:56;;;;;;;0.50;0.50;;;;;;;3.47;100.00;100827.22;4998710;28;20184;-84
2023/04/27 03:01:21;;;;;;;0.80;0.80;;;;;;;3.40;100.00;100831.16;4998169;28;20193;-83
2023/04/27 03:03:46;;;;;;;1.07;0.97;;;;;;;3.31;100.00;100825.41;4999528;28;20189;-83
2023/04/27 03:06:12;;;;;;;8.67;0.57;;;;;;;3.27;100.00;100832.38;5000021;28;20221;-83
2023/04/27 03:08:38;;;;;;;4.07;2.37;;;;;;;3.18;100.00;100837.44;4998921;28;20188;-83
2023/04/27 03:11:03;;;;;;;1.27;0.93;;;;;;;3.10;100.00;100834.34;5009970;28;20189;-84
2023/04/27 03:13:29;;;;;;;0.23;0.23;;;;;;;3.01;100.00;100825.06;5003687;28;20219;-84
2023/04/27 03:15:54;;;;;;;0.40;0.40;;;;;;;2.97;100.00;100830.97;5001168;28;20211;-84
2023/04/27 03:18:20;;;;;;;0.77;0.77;;;;;;;2.90;100.00;100824.13;5000863;28;20191;-84
2023/04/27 03:20:45;;;;;;;1.10;1.10;;;;;;;2.84;100.00;100827.81;5000582;28;20192;-84
2023/04/27 03:23:10;;;;;;;0.30;0.30;;;;;;;2.73;100.00;100834.13;4998028;28;20189;-84
2023/04/27 03:25:36;;;;;;;0.90;0.90;;;;;;;2.65;100.00;100832.72;4998152;28;20216;-85
2023/04/27 03:28:01;;;;;;;1.47;1.37;;;;;;;2.54;100.00;100820.94;4999878;28;20194;-84
2023/04/27 03:30:26;;;;;;;0.93;0.93;;;;;;;2.53;100.00;100834.69;5000108;28;20287;-83
2023/04/27 03:32:52;;;;;;;2.60;2.50;;;;;;;2.49;100.00;100825.47;4998146;28;20208;-84
2023/04/27 03:35:17;;;;;;;1.17;1.07;;;;;;;2.47;100.00;100828.41;4999323;28;20241;-85
2023/04/27 03:37:44;;;;;;;0.43;0.43;;;;;;;2.45;100.00;100829.72;4997493;28;20579;-85
2023/04/27 03:40:11;;;;;;;1.73;1.63;;;;;;;2.44;100.00;100838.88;4998759;28;20184;-84
2023/04/27 03:42:36;;;;;;;3.30;0.60;;;;;;;2.46;100.00;100836.72;4996923;28;20196;-83
2023/04/27 03:45:01;;;;;;;0.57;0.57;;;;;;;2.47;100.00;100841.91;4998194;28;20683;-84
2023/04/27 03:47:27;;;;;;;1.17;0.83;;;;;;;2.42;100.00;100844.50;4996389;28;20224;-84
2023/04/27 03:49:52;;;;;;;7.30;1.77;;;;;;;2.43;100.00;100848.84;4998277;28;20181;-84
2023/04/27 03:52:17;;;;;;;1.70;1.23;;;;;;;2.39;100.00;100845.00;4996744;28;20351;-84
2023/04/27 03:54:43;;;;;;;5.13;2.23;;;;;;;2.35;100.00;100847.38;4997390;28;20173;-84
2023/04/27 03:57:08;;;;;;;0.40;0.40;;;;;;;2.31;100.00;100838.13;4996271;28;20205;-85
2023/04/27 03:59:33;;;;;;;0.33;0.33;;;;;;;2.24;100.00;100839.38;4997166;28;20187;-84
2023/04/27 04:01:58;;;;;;;9.23;1.13;;;;;;;2.22;100.00;100844.22;4996808;28;20181;-83
2023/04/27 04:04:24;;;;;;;2.30;1.67;;;;;;;2.14;100.00;100842.72;4997902;28;20701;-83
2023/04/27 04:06:49;;;;;;;0.87;0.87;;;;;;;2.14;100.00;100847.31;4998778;28;20208;-84
2023/04/27 04:09:15;;;;;;;0.40;0.40;;;;;;;2.13;100.00;100851.06;4998623;28;20551;-83
2023/04/27 04:11:40;;;;;;;12.53;1.03;;;;;;;2.08;100.00;100847.25;4997250;28;20686;-83
2023/04/27 04:14:06;;;;;;;0.53;0.53;;;;;;;2.07;100.00;100842.91;4998508;28;20566;-85
2023/04/27 04:16:32;;;;;;;0.00;0.00;;;;;;;2.02;100.00;100847.38;5001532;28;20315;-85
2023/04/27 04:18:57;;;;;;;0.03;0.03;;;;;;;2.05;100.00;100845.03;5001849;28;20663;-86
2023/04/27 04:21:23;;;;;;;0.30;0.30;;;;;;;2.00;100.00;100858.41;5001937;28;20177;-85
2023/04/27 04:23:48;;;;;;;0.60;0.60;;;;;;;1.98;100.00;100857.03;5001823;28;20185;-85
2023/04/27 04:26:14;;;;;;;1.30;1.20;;;;;;;1.99;100.00;100858.66;5005743;28;20217;-84
2023/04/27 04:28:39;;;;;;;0.40;0.40;;;;;;;1.99;100.00;100858.66;5015941;28;20189;-83
2023/04/27 04:31:05;;;;;;;0.27;0.27;;;;;;;1.98;100.00;100862.41;5015058;28;20185;-83
2023/04/27 04:33:30;;;;;;;0.37;0.37;;;;;;;1.97;100.00;100868.88;5013796;28;20252;-85
2023/04/27 04:35:56;;;;;;;0.23;0.23;;;;;;;1.96;100.00;100861.84;5015102;28;20200;-82
2023/04/27 04:38:22;;;;;;;1.30;1.23;;;;;;;1.92;100.00;100866.09;4997247;28;20188;-83
2023/04/27 04:40:49;;;;;;;0.70;0.70;;;;;;;1.89;100.00;100867.41;4997254;28;20584;-83
2023/04/27 04:43:14;;;;;;;0.27;0.27;;;;;;;1.88;100.00;100865.78;4997433;28;20200;-83
2023/04/27 04:45:39;;;;;;;0.30;0.30;;;;;;;1.86;100.00;100870.56;4998273;28;20201;-83
2023/04/27 04:48:05;;;;;;;0.00;0.00;;;;;;;1.85;100.00;100866.22;4998506;28;20177;-83
2023/04/27 04:50:30;;;;;;;8.93;1.03;;;;;;;1.85;100.00;100863.53;4997031;28;20193;-83
2023/04/27 04:52:55;;;;;;;3.60;2.23;;;;;;;1.85;100.00;100870.81;4996319;28;20280;-83
2023/04/27 04:55:21;;;;;;;0.67;0.67;;;;;;;1.88;100.00;100875.69;4994342;28;20184;-84
2023/04/27 04:57:46;;;;;;;0.57;0.57;;;;;;;1.96;100.00;100883.41;4994672;28;20228;-83
2023/04/27 05:00:12;;;;;;;0.60;0.50;;;;;;;2.04;100.00;100885.72;4995777;28;20177;-83
2023/04/27 05:02:41;;;;;;;0.10;0.10;;;;;;;2.12;100.00;100881.78;4996850;28;20204;-84
2023/04/27 05:05:06;;;;;;;1.93;1.70;;;;;;;2.21;100.00;100885.72;4996212;28;20243;-83
2023/04/27 05:07:32;;;;;;;0.53;0.53;;;;;;;2.30;100.00;100890.44;4997555;28;20221;-83
2023/04/27 05:09:57;;;;;;;1.03;1.03;;;;;;;2.43;100.00;100883.06;4995537;28;20192;-83
2023/04/27 05:12:23;;;;;;;1.30;1.20;;;;;;;2.54;100.00;100874.06;4994684;28;20697;-83
2023/04/27 05:14:48;;;;;;;4.27;0.40;;;;;;;2.63;100.00;100888.78;4994468;28;20180;-84
2023/04/27 05:17:13;;;;;;;0.63;0.60;;;;;;;2.74;100.00;100885.16;4994239;28;20205;-83
2023/04/27 05:19:39;;;;;;;0.90;0.87;;;;;;;2.85;100.00;100886.94;4994147;28;20718;-84
2023/04/27 05:22:05;;;;;;;1.73;1.63;;;;;;;2.94;100.00;100893.53;4993516;28;20240;-83
2023/04/27 05:24:30;;;;;;;1.40;0.87;;;;;;;3.02;100.00;100900.38;4994207;28;20205;-82
2023/04/27 05:26:55;;;;;;;0.80;0.80;;;;;;;3.13;100.00;100904.03;4994322;28;20200;-84
2023/04/27 05:29:21;;;;;;;1.60;1.27;;;;;;;3.18;100.00;100894.13;4993784;28;20181;-84
2023/04/27 05:31:46;;;;;;;0.30;0.30;;;;;;;3.25;100.00;100896.63;4995085;28;20181;-82
2023/04/27 05:34:12;;;;;;;4.50;1.30;;;;;;;3.32;100.00;100899.94;4992808;28;20181;-84
2023/04/27 05:36:37;;;;;;;2.40;2.20;;;;;;;3.40;100.00;100906.78;4992871;28;20247;-84
2023/04/27 05:39:03;;;;;;;0.87;0.80;;;;;;;3.43;100.00;100901.69;4994478;28;20200;-82
2023/04/27 05:41:29;;;;;;;1.53;1.40;;;;;;;3.51;100.00;100905.84;4994380;28;20251;-84
2023/04/27 05:43:54;;;;;;;0.87;0.87;;;;;;;3.55;99.12;100902.38;4993687;28;20200;-84
2023/04/27 05:46:20;;;;;;;0.60;0.60;;;;;;;3.63;98.65;100906.53;4996718;28;20204;-84
2023/04/27 05:48:45;;;;;;;1.20;1.10;;;;;;;3.69;98.11;100908.19;4993540;28;20181;-83
2023/04/27 05:51:11;;;;;;;0.80;0.80;;;;;;;3.74;97.87;100912.81;4994631;28;20196;-84
2023/04/27 05:53:36;;;;;;;1.33;1.03;;;;;;;3.79;97.23;100919.13;4993580;28;20213;-83
2023/04/27 05:56:03;;;;;;;1.70;0.47;;;;;;;3.78;96.74;100911.28;4993382;28;20610;-84
2023/04/27 05:58:28;;;;;;;1.47;1.37;;;;;;;3.83;96.54;100919.41;4995019;28;20593;-84
2023/04/27 06:00:54;;;;;;;2.10;1.53;;;;;;;3.88;96.32;100924.88;4994978;28;20189;-83
2023/04/27 06:03:19;;;;;;;2.13;2.00;;;;;;;3.89;95.76;100924.59;4995821;28;20726;-84
2023/04/27 06:05:44;;;;;;;1.23;1.07;;;;;;;3.97;96.09;100928.75;4998994;28;20630;-83
2023/04/27 06:08:11;;;;;;;0.97;0.97;;;;;;;4.04;96.06;100939.34;4997409;28;20347;-83
2023/04/27 06:10:38;;;;;;;0.17;0.17;;;;;;;4.13;96.36;100937.81;4997545;28;20218;-83
2023/04/27 06:13:03;;;;;;;1.23;1.13;;;;;;;4.17;96.76;100930.81;4996535;28;20255;-83
2023/04/27 06:15:28;;;;;;;0.93;0.77;;;;;;;4.24;97.66;100939.56;4997847;28;20640;-83
2023/04/27 06:17:53;;;;;;;0.40;0.40;;;;;;;4.31;97.18;100933.91;4997193;28;20220;-84
2023/04/27 06:20:19;;;;;;;1.40;1.30;;;;;;;4.39;96.46;100942.38;4996708;28;20189;-83
2023/04/27 06:22:45;;;;;;;1.47;1.37;;;;;;;4.50;95.99;100934.34;4997838;28;20202;-84
2023/04/27 06:25:11;;;;;;;0.63;0.63;;;;;;;4.50;95.01;100935.19;4996446;28;20208;-84
2023/04/27 06:27:36;;;;;;;8.40;0.90;;;;;;;4.54;94.00;100947.09;4996949;28;20209;-84
2023/04/27 06:30:01;;;;;;;0.30;0.30;;;;;;;4.62;93.06;100943.91;4999256;28;20216;-83
2023/04/27 06:32:27;;;;;;;0.00;0.00;;;;;;;4.68;91.82;100947.47;4999401;28;20200;-84
2023/04/27 06:34:52;;;;;;;0.40;0.40;;;;;;;4.76;90.78;100941.56;4996767;28;20188;-85
2023/04/27 06:37:17;;;;;;;0.50;0.50;;;;;;;4.87;90.36;100934.34;5000882;28;20763;-84
2023/04/27 06:39:43;;;;;;;0.30;0.30;;;;;;;4.97;90.45;100942.53;4999678;28;20196;-84
2023/04/27 06:42:09;;;;;;;0.00;0.00;;;;;;;5.06;89.14;100938.22;4999156;28;20185;-84
2023/04/27 06:44:34;;;;;;;0.00;0.00;;;;;;;5.16;88.59;100946.41;5000122;28;20703;-85
2023/04/27 06:46:59;;;;;;;12.53;0.57;;;;;;;5.27;87.65;100950.00;5001822;28;20622;-84
2023/04/27 06:49:25;;;;;;;0.10;0.10;;;;;;;5.30;87.10;100954.88;5000990;28;20173;-84
2023/04/27 06:51:50;;;;;;;0.30;0.30;;;;;;;5.22;85.86;100948.09;4999069;28;20899;-84
2023/04/27 06:54:16;;;;;;;0.70;0.70;;;;;;;5.30;85.53;100949.47;4999469;28;20192;-85
2023/04/27 06:56:41;;;;;;;0.60;0.60;;;;;;;5.42;85.22;100950.06;5000721;28;20196;-85
2023/04/27 06:59:07;;;;;;;4.00;0.50;;;;;;;5.49;84.25;100957.94;4999942;28;20473;-84
2023/04/27 07:01:32;;;;;;;0.00;0.00;;;;;;;5.60;83.68;100944.16;4999028;28;20181;-83
2023/04/27 07:03:58;;;;;;;0.00;0.00;;;;;;;5.70;82.83;100948.81;4999662;28;20180;-84
2023/04/27 07:06:24;;;;;;;0.00;0.00;;;;;;;5.76;82.26;100944.22;5000590;28;20219;-84
2023/04/27 07:08:50;;;;;;;0.30;0.30;;;;;;;5.80;81.07;100943.44;5003784;28;20189;-84
2023/04/27 07:11:15;;;;;;;0.37;0.37;;;;;;;5.78;80.84;100936.63;5003822;28;20216;-85
2023/04/27 07:13:41;;;;;;;1.03;0.77;;;;;;;5.75;81.20;100931.75;5001948;28;20268;-84
2023/04/27 07:16:06;;;;;;;0.00;0.00;;;;;;;5.72;80.75;100932.28;5000715;28;20243;-84
2023/04/27 07:18:31;;;;;;;0.63;0.63;;;;;;;5.77;80.13;100943.94;5003655;28;20540;-85
2023/04/27 07:20:57;;;;;;;2.43;0.87;;;;;;;5.75;80.34;100950.72;5004461;28;20196;-84
2023/04/27 07:23:22;;;;;;;0.00;0.00;;;;;;;5.70;79.74;100937.16;5004679;28;20185;-85
2023/04/27 07:25:48;;;;;;;0.30;0.30;;;;;;;5.74;79.94;100949.09;5002296;28;20213;-84
2023/04/27 07:28:14;;;;;;;0.40;0.40;;;;;;;5.76;79.17;100942.31;5001673;28;20192;-85
2023/04/27 07:30:40;;;;;;;0.20;0.20;;;;;;;5.78;79.02;100945.56;5001551;28;20216;-85
2023/04/27 07:33:06;;;;;;;0.00;0.00;;;;;;;5.88;79.91;100942.91;5002472;28;20189;-86
2023/04/27 07:35:31;;;;;;;0.87;0.47;;;;;;;6.00;78.50;100939.16;5001387;28;20268;-84
2023/04/27 07:37:56;;;;;;;0.00;0.00;;;;;;;6.11;77.78;100941.63;5002309;28;20280;-84
2023/04/27 07:40:23;;;;;;;0.20;0.20;;;;;;;6.14;76.54;100948.41;5000868;28;20185;-84
2023/04/27 07:42:48;;;;;;;0.30;0.30;;;;;;;6.13;76.11;100944.88;5002300;28;20235;-84
2023/04/27 07:45:16;;;;;;;0.00;0.00;;;;;;;6.11;75.68;100948.94;5001610;28;20208;-85
2023/04/27 07:47:42;;;;;;;0.00;0.00;;;;;;;6.21;75.17;100943.50;5002801;28;20193;-86
2023/04/27 07:50:08;;;;;;;0.00;0.00;;;;;;;6.25;74.01;100945.44;5002232;28;20272;-85
2023/04/27 07:52:34;;;;;;;0.73;0.57;;;;;;;6.38;73.39;100940.56;5003794;28;20177;-84
2023/04/27 07:55:00;;;;;;;0.00;0.00;;;;;;;6.41;73.71;100940.00;5002855;28;20182;-85
2023/04/27 07:57:26;;;;;;;0.40;0.40;;;;;;;6.51;71.82;100931.88;5002061;28;20208;-86
2023/04/27 07:59:51;;;;;;;0.30;0.30;;;;;;;6.71;70.98;100922.91;5001815;28;20185;-85
2023/04/27 08:02:17;;;;;;;2.47;0.20;;;;;;;6.76;70.74;100920.16;5001673;28;20177;-84
2023/04/27 08:04:42;;;;;;;0.00;0.00;;;;;;;6.81;70.32;100925.59;5001549;28;20587;-85
2023/04/27 08:07:07;;;;;;;0.00;0.00;;;;;;;6.99;71.12;100918.75;5001643;28;20243;-84
2023/04/27 08:09:32;;;;;;;0.00;0.00;;;;;;;6.83;68.77;100902.50;5000646;28;20193;-85
2023/04/27 08:11:58;;;;;;;0.10;0.10;;;;;;;7.10;69.36;100912.22;5000777;28;20192;-85
2023/04/27 08:14:23;;;;;;;0.00;0.00;;;;;;;7.05;68.27;100910.31;5000787;28;20192;-85
2023/04/27 08:16:50;;;;;;;0.10;0.10;;;;;;;7.16;68.71;100908.38;5001795;28;20201;-85
2023/04/27 08:19:15;;;;;;;0.37;0.37;;;;;;;7.39;67.73;100909.66;5000502;28;20203;-84
2023/04/27 08:21:41;;;;;;;0.00;0.00;;;;;;;6.90;66.77;100896.78;5002071;28;20626;-86
2023/04/27 08:24:06;;;;;;;0.40;0.40;;;;;;;7.13;66.74;100898.88;5000760;28;20189;-85
2023/04/27 08:26:32;;;;;;;0.27;0.27;;;;;;;7.41;67.41;100907.47;5001496;28;20213;-85
2023/04/27 08:28:58;;;;;;;0.00;0.00;;;;;;;7.03;66.80;100906.25;5000705;28;20191;-85
2023/04/27 08:31:25;;;;;;;0.00;0.00;;;;;;;7.00;67.80;100904.91;5002008;28;20235;-84
2023/04/27 08:33:51;;;;;;;0.10;0.00;;;;;;;7.39;69.08;100915.09;5001669;28;20180;-85
2023/04/27 08:36:18;;;;;;;0.00;0.00;;;;;;;7.67;67.93;100909.00;5000633;28;20201;-84
2023/04/27 08:38:43;;;;;;;0.00;0.00;;;;;;;7.88;66.18;100911.56;5000638;28;20196;-84
2023/04/27 08:41:08;;;;;;;1.07;0.97;;;;;;;7.75;66.28;100894.78;5001308;28;20584;-86
2023/04/27 08:43:34;;;;;;;0.13;0.13;;;;;;;7.79;65.81;100886.06;5000195;28;20229;-86
2023/04/27 08:46:00;;;;;;;0.00;0.00;;;;;;;7.67;63.36;100875.53;5000426;28;20213;-85
2023/04/27 08:48:25;;;;;;;0.87;0.40;;;;;;;7.54;60.86;100860.66;5002223;28;20231;-83
2023/04/27 08:50:52;;;;;;;0.27;0.27;;;;;;;7.36;61.25;100859.38;5000970;28;20223;-86
2023/04/27 08:53:22;;;;;;;0.00;0.00;;;;;;;7.18;60.62;100861.91;5001481;28;20271;-84
2023/04/27 08:55:48;;;;;;;0.27;0.27;;;;;;;7.16;62.03;100878.50;5001889;28;20173;-84
2023/04/27 08:58:14;;;;;;;0.77;0.77;;;;;;;7.21;63.10;100883.09;5000505;28;20235;-83
2023/04/27 09:00:41;;;;;;;3.10;1.63;;;;;;;7.35;63.58;100886.84;5000932;28;20177;-83
2023/04/27 09:03:17;;;;;;;0.00;0.00;;;;;;;7.46;64.14;100885.69;4998269;28;20181;-86
2023/04/27 09:05:45;;;;;;;0.57;0.37;;;;;;;7.57;62.73;100884.56;4998236;28;20267;-85
2023/04/27 09:08:11;;;;;;;0.83;0.83;;;;;;;7.60;62.98;100885.91;4998433;28;20208;-85
2023/04/27 09:10:46;;;;;;;0.00;0.00;;;;;;;7.54;61.75;100885.13;5000060;28;20181;-84
2023/04/27 09:13:12;;;;;;;0.00;0.00;;;;;;;7.89;63.01;100894.16;4999562;28;20188;-84
2023/04/27 09:15:45;;;;;;;0.00;0.00;;;;;;;8.03;62.07;100881.53;4996260;28;20262;-84
2023/04/27 09:18:20;;;;;;;0.10;0.10;;;;;;;7.97;58.14;100856.28;4996163;28;20188;-83
2023/04/27 09:20:49;;;;;;;6.80;0.73;;;;;;;7.89;59.98;100864.22;4996648;28;20187;-85
2023/04/27 09:23:29;;;;;;;0.00;0.00;;;;;;;8.28;60.83;100889.50;4995238;28;20189;-84
2023/04/27 09:25:55;;;;;;;0.00;0.00;;;;;;;8.01;57.36;100849.19;4996318;28;20213;-84
2023/04/27 09:28:22;;;;;;;1.93;0.53;;;;;;;8.43;59.57;100879.63;4996784;28;20208;-84
2023/04/27 09:30:53;;;;;;;0.00;0.00;;;;;;;8.58;59.73;100884.91;4994695;28;20181;-86
2023/04/27 09:33:28;;;;;;;0.17;0.17;;;;;;;8.56;56.05;100857.16;4996323;28;20208;-85
2023/04/27 09:35:54;;;;;;;0.00;0.00;;;;;;;8.69;56.55;100856.50;4996540;28;20251;-84
2023/04/27 09:38:21;;;;;;;0.10;0.10;;;;;;;8.86;57.64;100861.47;4996655;28;20184;-84
2023/04/27 09:40:47;;;;;;;1.13;0.50;;;;;;;8.55;55.58;100833.75;4997302;28;20231;-83
2023/04/27 09:43:13;;;;;;;0.00;0.00;;;;;;;8.81;57.25;100854.16;4996347;28;20223;-84
2023/04/27 09:45:38;;;;;;;0.13;0.13;;;;;;;9.07;56.32;100851.94;4995287;28;20213;-85
2023/04/27 09:48:05;;;;;;;0.30;0.30;;;;;;;9.13;56.66;100855.44;5000768;28;20182;-85
2023/04/27 09:50:37;;;;;;;0.30;0.30;;;;;;;9.03;54.99;100833.75;5002483;28;20614;-85
2023/04/27 09:53:06;;;;;;;0.00;0.00;;;;;;;8.57;53.28;100809.78;5004039;28;20208;-85
2023/04/27 09:55:51;;;;;;;0.00;0.00;;;;;;;8.43;54.34;100833.34;5002309;28;20177;-85
2023/04/27 09:58:43;;;;;;;0.47;0.47;;;;;;;8.13;53.82;100809.91;5003290;28;20662;-86
2023/04/27 10:01:14;;;;;;;0.00;0.00;;;;;;;8.00;53.33;100806.75;5002337;28;20181;-86
2023/04/27 10:04:02;;;;;;;0.00;0.00;;;;;;;7.99;54.60;100835.03;4996574;28;20192;-86
2023/04/27 10:06:52;;;;;;;0.00;0.00;;;;;;;8.11;55.12;100831.16;4989504;28;20259;-85
2023/04/27 10:09:25;;;;;;;5.00;0.30;;;;;;;8.44;56.78;100849.38;4988825;28;20184;-85
2023/04/27 10:11:53;;;;;;;0.50;0.50;;;;;;;8.81;56.59;100850.63;4996256;28;20211;-85
2023/04/27 10:14:21;;;;;;;0.00;0.00;;;;;;;8.88;55.05;100838.28;4997692;28;20188;-85
2023/04/27 10:16:53;;;;;;;0.00;0.00;;;;;;;9.27;55.22;100850.09;4996991;28;20702;-84
2023/04/27 10:19:20;;;;;;;0.87;0.87;;;;;;;9.48;55.14;100846.78;4997430;28;20181;-85
2023/04/27 10:22:02;;;;;;;0.67;0.67;;;;;;;9.20;54.16;100837.63;4996713;28;20189;-84
2023/04/27 10:24:38;;;;;;;0.07;0.07;;;;;;;9.03;54.23;100836.47;4989558;28;20519;-84
2023/04/27 10:27:08;;;;;;;0.50;0.47;;;;;;;9.17;54.60;100846.38;4995948;28;20205;-84
2023/04/27 10:29:38;;;;;;;0.10;0.10;;;;;;;8.69;53.46;100820.28;4997486;28;20192;-84
2023/04/27 10:32:20;;;;;;;0.10;0.10;;;;;;;8.44;53.76;100822.16;4996137;28;20187;-85
2023/04/27 10:34:47;;;;;;;0.33;0.33;;;;;;;8.41;54.15;100839.06;4998273;28;20181;-85
2023/04/27 10:37:14;;;;;;;0.30;0.30;;;;;;;8.62;54.35;100834.22;4997411;28;20193;-85
2023/04/27 10:39:41;;;;;;;0.00;0.00;;;;;;;8.64;52.59;100816.47;4996603;28;20181;-85
2023/04/27 10:42:07;;;;;;;0.10;0.10;;;;;;;8.91;50.30;100806.91;4998465;28;20181;-85
2023/04/27 10:44:34;;;;;;;0.20;0.20;;;;;;;8.78;50.49;100802.16;4995998;28;20205;-84
2023/04/27 10:47:11;;;;;;;0.00;0.00;;;;;;;9.04;50.80;100813.56;4996624;28;20235;-85
2023/04/27 10:49:37;;;;;;;0.00;0.00;;;;;;;9.28;50.12;100810.81;4998507;28;20173;-85
2023/04/27 10:52:03;;;;;;;0.47;0.47;;;;;;;9.66;50.66;100820.59;5000164;28;20177;-85
2023/04/27 10:54:30;;;;;;;0.47;0.10;;;;;;;9.69;49.21;100800.09;5000372;28;20272;-85
2023/04/27 10:57:06;;;;;;;0.00;0.00;;;;;;;9.83;49.68;100803.69;4999409;28;20205;-85
2023/04/27 10:59:32;;;;;;;0.00;0.00;;;;;;;9.74;49.90;100794.59;4998562;28;20268;-87
2023/04/27 11:01:57;;;;;;;0.37;0.37;;;;;;;10.13;51.59;100819.59;4997553;28;20259;-86
2023/04/27 11:04:22;;;;;;;0.23;0.23;;;;;;;10.28;49.44;100787.72;4997364;28;20579;-86
2023/04/27 11:06:49;;;;;;;0.50;0.50;;;;;;;10.30;48.30;100780.84;4997658;28;20231;-85
2023/04/27 11:09:26;;;;;;;0.70;0.70;;;;;;;10.20;47.62;100777.44;4997143;28;20177;-85
2023/04/27 11:11:51;;;;;;;0.87;0.87;;;;;;;10.10;46.91;100772.94;4995989;28;20187;-84
2023/04/27 11:14:22;;;;;;;0.57;0.57;;;;;;;10.19;49.07;100793.00;4996158;28;20271;-85
2023/04/27 11:16:48;;;;;;;0.07;0.07;;;;;;;10.26;47.05;100768.06;4996704;28;20580;-85
2023/04/27 11:19:13;;;;;;;2.20;0.70;;;;;;;10.08;47.11;100762.34;4997367;28;20181;-85
2023/04/27 11:21:39;;;;;;;0.00;0.00;;;;;;;10.39;49.67;100795.38;4996431;28;20243;-85
2023/04/27 11:24:06;;;;;;;1.00;1.00;;;;;;;10.62;48.26;100788.13;4997076;28;20192;-85
2023/04/27 11:26:31;;;;;;;1.13;1.13;;;;;;;10.42;47.31;100772.16;4995245;28;20247;-84